Kimberly Turecamo — WDC6838 — position and weather

sailwx.info

Track history (hours):
 
Tides and Currents Weather Stations Pressure Air Temp Water Temp Dewpoint Dewpoint Depression Visibility Wind Speed Wind Dir Waves Ship Positions

Kimberly Turecamo

Owner: Moran Towing Corporation, New Canaan, CT. More information available from US FCC via Universal Licensing System and Coast Guard Vessel Documentation Center.

Last reported at 2016-Dec-03 13:33 UTC. Time now 2016-Dec-03 13:45 UTC.
Position N 39°53' W 075°11'.

Length 31 m; draft 5 m.

Type: Tug. MMSI: 367061980.

Date/timePositionNaut miles runAvg speedWind from/ knotsBaromVisibWave heightAir tempDewpointWater temp
2016-Dec-03 13:33N 39°53' W 075°11'0 0.0
2016-Dec-03 12:33N 39°53' W 075°11'0 0.0
2016-Dec-03 11:33N 39°53' W 075°11'0 0.0
2016-Dec-03 10:33N 39°53' W 075°11'0 0.0
2016-Dec-03 09:33N 39°53' W 075°11'0 0.0
2016-Dec-03 08:33N 39°53' W 075°11'0 0.0
2016-Dec-03 07:33N 39°53' W 075°11'0 0.0
2016-Dec-03 06:33N 39°53' W 075°11'0 0.0
2016-Dec-03 05:33N 39°53' W 075°11'0 0.0
2016-Dec-03 04:33N 39°53' W 075°11'0 0.0
2016-Dec-03 03:33N 39°53' W 075°11'0 0.0
2016-Dec-03 02:33N 39°53' W 075°11'2 2.3
2016-Dec-03 01:33N 39°54' W 075°08'5 5.4
2016-Dec-03 00:33N 39°59' W 075°04'2 2.5
2016-Dec-02 23:33N 39°58' W 075°07'5 5.4
2016-Dec-02 22:33N 39°53' W 075°09'6 6.1
2016-Dec-02 21:33N 39°51' W 075°17'7 6.6
2016-Dec-02 20:33N 39°48' W 075°25'7 7.4
2016-Dec-02 19:33N 39°43' W 075°31'7 7.5
2016-Dec-02 18:33N 39°36' W 075°34'8 8.2
2016-Dec-02 17:33N 39°27' W 075°34'9 9.0
2016-Dec-02 16:33N 39°21' W 075°26'9 9.1
2016-Dec-02 15:33N 39°14' W 075°18'53 4.0
2016-Dec-02 02:13N 39°26' W 074°11'4 6.2
2016-Dec-02 01:33N 39°29' W 074°08'6 6.1
2016-Dec-02 00:33N 39°35' W 074°05'6 6.3
2016-Dec-01 23:33N 39°41' W 074°02'6 6.2
2016-Dec-01 22:33N 39°47' W 073°59'6 6.2
2016-Dec-01 21:33N 39°53' W 073°58'34 6.7
2016-Dec-01 16:27N 40°27' W 073°54'4 4.9
2016-Dec-01 15:33N 40°30' W 073°57'6 5.7
2016-Dec-01 14:33N 40°35' W 074°02'3 3.0
2016-Dec-01 13:33N 40°37' W 074°03'3 2.6
2016-Dec-01 12:32N 40°40' W 074°02'0 0.1
2016-Dec-01 11:32N 40°40' W 074°02'0 0.1
2016-Dec-01 10:32N 40°40' W 074°02'0 0.0
2016-Dec-01 09:32N 40°40' W 074°02'0 0.0
2016-Dec-01 08:32N 40°40' W 074°02'0 0.0
2016-Dec-01 07:32N 40°40' W 074°02'0 0.0
2016-Dec-01 06:31N 40°40' W 074°02'0 0.0
2016-Dec-01 05:31N 40°40' W 074°02'0 0.0
2016-Dec-01 04:31N 40°40' W 074°02'0 0.1
2016-Dec-01 03:31N 40°40' W 074°02'0 0.1
2016-Dec-01 02:31N 40°40' W 074°02'0 0.0
2016-Dec-01 01:31N 40°40' W 074°02'0 0.0
2016-Dec-01 00:31N 40°40' W 074°02'0 0.0
2016-Nov-30 23:31N 40°40' W 074°02'0 0.1
2016-Nov-30 22:31N 40°40' W 074°02'0 0.1
2016-Nov-30 21:31N 40°40' W 074°02'0 0.0
2016-Nov-30 20:31N 40°40' W 074°02'2 2.3
2016-Nov-30 19:34N 40°39' W 074°05'0 0.1
2016-Nov-30 18:33N 40°39' W 074°05'2 2.5
2016-Nov-30 17:34N 40°37' W 074°03'0 0.4
2016-Nov-30 16:33N 40°37' W 074°03'4 3.9
2016-Nov-30 15:34N 40°38' W 074°08'0 0.0
2016-Nov-30 14:34N 40°38' W 074°08'0 0.0
2016-Nov-30 13:34N 40°38' W 074°08'0 0.0
2016-Nov-30 12:34N 40°38' W 074°08'0 0.0
2016-Nov-30 11:34N 40°38' W 074°08'0 0.0
2016-Nov-30 10:34N 40°38' W 074°08'0 0.0
2016-Nov-30 09:34N 40°38' W 074°08'0 0.0
2016-Nov-30 08:33N 40°38' W 074°08'0 0.0
2016-Nov-30 07:34N 40°38' W 074°08'0 0.0
2016-Nov-30 06:34N 40°38' W 074°08'0 0.0
2016-Nov-30 05:33N 40°38' W 074°08'0 0.0
2016-Nov-30 04:33N 40°38' W 074°08'0 0.0
2016-Nov-30 03:33N 40°38' W 074°08'0 0.0
2016-Nov-30 02:33N 40°38' W 074°08'0 0.0
2016-Nov-30 01:34N 40°38' W 074°08'0 0.0
2016-Nov-30 00:33N 40°38' W 074°08'0 0.0
2016-Nov-29 23:33N 40°38' W 074°08'0 0.0
2016-Nov-29 22:33N 40°38' W 074°08'0 0.0
2016-Nov-29 21:33N 40°38' W 074°08'2 2.2
2016-Nov-29 20:33N 40°39' W 074°05'0 0.0
2016-Nov-29 19:33N 40°39' W 074°05'6 6.3
2016-Nov-29 18:33N 40°45' W 074°01'3 3.4
2016-Nov-29 17:33N 40°48' W 073°59'0 0.0
2016-Nov-29 16:33N 40°48' W 073°59'0 0.0
2016-Nov-29 15:33N 40°48' W 073°59'0 0.0
2016-Nov-29 14:33N 40°48' W 073°59'0 0.0
2016-Nov-29 13:33N 40°48' W 073°59'0 0.0
2016-Nov-29 12:33N 40°48' W 073°59'0 0.0
2016-Nov-29 11:33N 40°48' W 073°59'0 0.1
2016-Nov-29 10:33N 40°48' W 073°59'0 0.1
2016-Nov-29 09:33N 40°48' W 073°59'0 0.0
2016-Nov-29 08:33N 40°48' W 073°59'0 0.0
2016-Nov-29 07:33N 40°48' W 073°59'0 0.0
2016-Nov-29 06:33N 40°48' W 073°59'0 0.0
2016-Nov-29 05:33N 40°48' W 073°59'0 0.1
2016-Nov-29 04:33N 40°48' W 073°59'0 0.0
2016-Nov-29 03:33N 40°48' W 073°59'0 0.0
2016-Nov-29 02:33N 40°48' W 073°59'0 0.0
2016-Nov-29 01:33N 40°48' W 073°59'0 0.0
2016-Nov-29 00:33N 40°48' W 073°59'0 0.0
2016-Nov-28 23:33N 40°48' W 073°59'0 0.0
2016-Nov-28 22:33N 40°48' W 073°59'0 0.1
2016-Nov-28 21:33N 40°48' W 073°59'0 0.0
2016-Nov-28 20:33N 40°48' W 073°59'0 0.0
2016-Nov-28 19:33N 40°48' W 073°59'0 0.0
2016-Nov-28 18:33N 40°48' W 073°59'0 0.0
2016-Nov-28 17:33N 40°48' W 073°59'0 0.0
2016-Nov-28 16:33N 40°48' W 073°59'0 0.1
2016-Nov-28 15:33N 40°48' W 073°59'0 0.0
2016-Nov-28 14:33N 40°48' W 073°59'0 0.0
2016-Nov-28 13:33N 40°48' W 073°59'0 0.0
2016-Nov-28 12:33N 40°48' W 073°59'0 0.0
2016-Nov-28 11:30N 40°48' W 073°59'0 0.1
2016-Nov-28 10:33N 40°48' W 073°59'0 0.1
2016-Nov-28 09:33N 40°48' W 073°59'0 0.0
2016-Nov-28 08:33N 40°48' W 073°59'0 0.0
2016-Nov-28 07:33N 40°48' W 073°59'0 0.0
2016-Nov-28 06:32N 40°48' W 073°59'0 0.0
2016-Nov-28 05:32N 40°48' W 073°59'0 0.0
2016-Nov-28 04:32N 40°48' W 073°59'0 0.1
2016-Nov-28 03:32N 40°48' W 073°59'0 0.0
2016-Nov-28 02:29N 40°48' W 073°59'0 0.0
2016-Nov-28 01:32N 40°48' W 073°59'0 0.0
2016-Nov-28 00:29N 40°48' W 073°59'0 0.0
2016-Nov-27 23:32N 40°48' W 073°59'0 0.1
2016-Nov-27 22:32N 40°48' W 073°59'0 0.0
2016-Nov-27 21:33N 40°48' W 073°59'5 5.5
2016-Nov-27 20:33N 40°43' W 074°01'6 6.1
2016-Nov-27 19:33N 40°47' W 073°56'10 0.9
2016-Nov-27 08:24N 40°52' W 073°45'8 9.7
2016-Nov-27 07:33N 40°48' W 073°54'9 9.6
2016-Nov-27 06:33N 40°41' W 074°02'4 3.6
2016-Nov-27 05:33N 40°37' W 074°03'4 3.6
2016-Nov-27 04:33N 40°38' W 074°08'0 0.0
2016-Nov-27 03:33N 40°38' W 074°08'0 0.0
2016-Nov-27 02:33N 40°38' W 074°08'0 0.0
2016-Nov-27 01:33N 40°38' W 074°08'0 0.0
2016-Nov-27 00:33N 40°38' W 074°08'0 0.0
2016-Nov-26 23:33N 40°38' W 074°08'0 0.0
2016-Nov-26 22:33N 40°38' W 074°08'0 0.0
2016-Nov-26 21:33N 40°38' W 074°08'0 0.0
2016-Nov-26 20:33N 40°38' W 074°08'0 0.0
2016-Nov-26 19:33N 40°38' W 074°08'0 0.0
2016-Nov-26 18:33N 40°38' W 074°08'3 3.1
2016-Nov-26 17:33N 40°38' W 074°12'8 3.3
2016-Nov-26 15:16N 40°31' W 074°15'710.1
2016-Nov-26 14:33N 40°38' W 074°12'3 3.2
2016-Nov-26 13:32N 40°38' W 074°08'0 0.0
2016-Nov-26 10:26N 40°38' W 074°08'0 0.0
2016-Nov-26 07:17N 40°38' W 074°08'0 0.0
2016-Nov-26 06:25N 40°38' W 074°08'0 0.0
2016-Nov-26 05:07N 40°38' W 074°08'0 0.0
2016-Nov-26 04:25N 40°38' W 074°08'0 0.0
2016-Nov-26 03:31N 40°38' W 074°08'0 0.0
2016-Nov-25 11:31N 40°38' W 074°08'0 0.0
2016-Nov-25 10:31N 40°38' W 074°08'0 0.0
2016-Nov-25 09:28N 40°38' W 074°08'0 0.0
2016-Nov-25 07:31N 40°38' W 074°08'3 3.1
2016-Nov-25 06:33N 40°38' W 074°04'3 2.9
2016-Nov-25 05:32N 40°38' W 074°08'1 1.0
2016-Nov-25 04:33N 40°39' W 074°07'0 0.4
2016-Nov-25 03:33N 40°39' W 074°06'1 0.5
2016-Nov-25 02:33N 40°39' W 074°07'1 0.8
2016-Nov-25 01:33N 40°38' W 074°08'0 0.0
2016-Nov-25 00:33N 40°38' W 074°08'0 0.0
2016-Nov-24 23:33N 40°38' W 074°08'0 0.0
2016-Nov-24 22:33N 40°38' W 074°08'0 0.0
2016-Nov-24 21:33N 40°38' W 074°08'0 0.0
2016-Nov-24 20:33N 40°38' W 074°08'0 0.0
2016-Nov-24 19:33N 40°38' W 074°08'0 0.0
2016-Nov-24 18:33N 40°38' W 074°08'0 0.0
2016-Nov-24 17:33N 40°38' W 074°08'2 1.6
2016-Nov-24 16:33N 40°40' W 074°08'2 1.5
2016-Nov-24 15:33N 40°42' W 074°08'3 2.9
2016-Nov-24 14:29N 40°38' W 074°08'0 0.0
2016-Nov-24 13:33N 40°38' W 074°08'0 0.0
2016-Nov-24 12:33N 40°38' W 074°08'0 0.0
2016-Nov-24 11:33N 40°38' W 074°08'0 0.0
2016-Nov-24 10:33N 40°38' W 074°08'0 0.0
2016-Nov-24 09:33N 40°38' W 074°08'0 0.0
2016-Nov-24 08:33N 40°38' W 074°08'0 0.0
2016-Nov-24 07:33N 40°38' W 074°08'0 0.0
2016-Nov-24 06:33N 40°38' W 074°08'0 0.0
2016-Nov-24 05:33N 40°38' W 074°08'1 1.2
2016-Nov-24 04:33N 40°40' W 074°09'2 2.4
2016-Nov-24 03:33N 40°42' W 074°09'4 3.8
2016-Nov-24 02:33N 40°39' W 074°06'5 5.0
2016-Nov-24 01:33N 40°41' W 074°00'4 4.0
2016-Nov-24 00:33N 40°39' W 074°04'6 5.9
2016-Nov-23 23:33N 40°38' W 074°12'4 4.3
2016-Nov-23 22:33N 40°39' W 074°07'3 3.0
2016-Nov-23 21:33N 40°37' W 074°03'4 3.5
2016-Nov-23 20:33N 40°38' W 074°08'0 0.0
2016-Nov-23 19:33N 40°38' W 074°08'0 0.0
2016-Nov-23 18:33N 40°38' W 074°08'0 0.0
2016-Nov-23 17:33N 40°38' W 074°08'0 0.0
2016-Nov-23 16:33N 40°38' W 074°08'0 0.3
2016-Nov-23 15:33N 40°39' W 074°08'1 0.7
2016-Nov-23 13:33N 40°40' W 074°08'  
Track history (hours):
 
Tides and Currents Weather Stations Pressure Air Temp Water Temp Dewpoint Dewpoint Depression Visibility Wind Speed Wind Dir Waves Ship Positions

Kimberly Turecamo

Owner: Moran Towing Corporation, New Canaan, CT. More information available from US FCC via Universal Licensing System and Coast Guard Vessel Documentation Center.

Last reported at 2016-Dec-03 13:33 UTC. Time now 2016-Dec-03 13:45 UTC.
Position N 39°53' W 075°11'.

Length 31 m; draft 5 m.

Type: Tug. MMSI: 367061980.

Date/timePositionNaut miles runAvg speedWind from/ knotsBaromVisibWave heightAir tempDewpointWater temp
2016-Dec-03 13:33N 39°53' W 075°11'0 0.0
2016-Dec-03 12:33N 39°53' W 075°11'0 0.0
2016-Dec-03 11:33N 39°53' W 075°11'0 0.0
2016-Dec-03 10:33N 39°53' W 075°11'0 0.0
2016-Dec-03 09:33N 39°53' W 075°11'0 0.0
2016-Dec-03 08:33N 39°53' W 075°11'0 0.0
2016-Dec-03 07:33N 39°53' W 075°11'0 0.0
2016-Dec-03 06:33N 39°53' W 075°11'0 0.0
2016-Dec-03 05:33N 39°53' W 075°11'0 0.0
2016-Dec-03 04:33N 39°53' W 075°11'0 0.0
2016-Dec-03 03:33N 39°53' W 075°11'0 0.0
2016-Dec-03 02:33N 39°53' W 075°11'2 2.3
2016-Dec-03 01:33N 39°54' W 075°08'5 5.4
2016-Dec-03 00:33N 39°59' W 075°04'2 2.5
2016-Dec-02 23:33N 39°58' W 075°07'5 5.4
2016-Dec-02 22:33N 39°53' W 075°09'6 6.1
2016-Dec-02 21:33N 39°51' W 075°17'7 6.6
2016-Dec-02 20:33N 39°48' W 075°25'7 7.4
2016-Dec-02 19:33N 39°43' W 075°31'7 7.5
2016-Dec-02 18:33N 39°36' W 075°34'8 8.2
2016-Dec-02 17:33N 39°27' W 075°34'9 9.0
2016-Dec-02 16:33N 39°21' W 075°26'9 9.1
2016-Dec-02 15:33N 39°14' W 075°18'53 4.0
2016-Dec-02 02:13N 39°26' W 074°11'4 6.2
2016-Dec-02 01:33N 39°29' W 074°08'6 6.1
2016-Dec-02 00:33N 39°35' W 074°05'6 6.3
2016-Dec-01 23:33N 39°41' W 074°02'6 6.2
2016-Dec-01 22:33N 39°47' W 073°59'6 6.2
2016-Dec-01 21:33N 39°53' W 073°58'34 6.7
2016-Dec-01 16:27N 40°27' W 073°54'4 4.9
2016-Dec-01 15:33N 40°30' W 073°57'6 5.7
2016-Dec-01 14:33N 40°35' W 074°02'3 3.0
2016-Dec-01 13:33N 40°37' W 074°03'3 2.6
2016-Dec-01 12:32N 40°40' W 074°02'0 0.1
2016-Dec-01 11:32N 40°40' W 074°02'0 0.1
2016-Dec-01 10:32N 40°40' W 074°02'0 0.0
2016-Dec-01 09:32N 40°40' W 074°02'0 0.0
2016-Dec-01 08:32N 40°40' W 074°02'0 0.0
2016-Dec-01 07:32N 40°40' W 074°02'0 0.0
2016-Dec-01 06:31N 40°40' W 074°02'0 0.0
2016-Dec-01 05:31N 40°40' W 074°02'0 0.0
2016-Dec-01 04:31N 40°40' W 074°02'0 0.1
2016-Dec-01 03:31N 40°40' W 074°02'0 0.1
2016-Dec-01 02:31N 40°40' W 074°02'0 0.0
2016-Dec-01 01:31N 40°40' W 074°02'0 0.0
2016-Dec-01 00:31N 40°40' W 074°02'0 0.0
2016-Nov-30 23:31N 40°40' W 074°02'0 0.1
2016-Nov-30 22:31N 40°40' W 074°02'0 0.1
2016-Nov-30 21:31N 40°40' W 074°02'0 0.0
2016-Nov-30 20:31N 40°40' W 074°02'2 2.3
2016-Nov-30 19:34N 40°39' W 074°05'0 0.1
2016-Nov-30 18:33N 40°39' W 074°05'2 2.5
2016-Nov-30 17:34N 40°37' W 074°03'0 0.4
2016-Nov-30 16:33N 40°37' W 074°03'4 3.9
2016-Nov-30 15:34N 40°38' W 074°08'0 0.0
2016-Nov-30 14:34N 40°38' W 074°08'0 0.0
2016-Nov-30 13:34N 40°38' W 074°08'0 0.0
2016-Nov-30 12:34N 40°38' W 074°08'0 0.0
2016-Nov-30 11:34N 40°38' W 074°08'0 0.0
2016-Nov-30 10:34N 40°38' W 074°08'0 0.0
2016-Nov-30 09:34N 40°38' W 074°08'0 0.0
2016-Nov-30 08:33N 40°38' W 074°08'0 0.0
2016-Nov-30 07:34N 40°38' W 074°08'0 0.0
2016-Nov-30 06:34N 40°38' W 074°08'0 0.0
2016-Nov-30 05:33N 40°38' W 074°08'0 0.0
2016-Nov-30 04:33N 40°38' W 074°08'0 0.0
2016-Nov-30 03:33N 40°38' W 074°08'0 0.0
2016-Nov-30 02:33N 40°38' W 074°08'0 0.0
2016-Nov-30 01:34N 40°38' W 074°08'0 0.0
2016-Nov-30 00:33N 40°38' W 074°08'0 0.0
2016-Nov-29 23:33N 40°38' W 074°08'0 0.0
2016-Nov-29 22:33N 40°38' W 074°08'0 0.0
2016-Nov-29 21:33N 40°38' W 074°08'2 2.2
2016-Nov-29 20:33N 40°39' W 074°05'0 0.0
2016-Nov-29 19:33N 40°39' W 074°05'6 6.3
2016-Nov-29 18:33N 40°45' W 074°01'3 3.4
2016-Nov-29 17:33N 40°48' W 073°59'0 0.0
2016-Nov-29 16:33N 40°48' W 073°59'0 0.0
2016-Nov-29 15:33N 40°48' W 073°59'0 0.0
2016-Nov-29 14:33N 40°48' W 073°59'0 0.0
2016-Nov-29 13:33N 40°48' W 073°59'0 0.0
2016-Nov-29 12:33N 40°48' W 073°59'0 0.0
2016-Nov-29 11:33N 40°48' W 073°59'0 0.1
2016-Nov-29 10:33N 40°48' W 073°59'0 0.1
2016-Nov-29 09:33N 40°48' W 073°59'0 0.0
2016-Nov-29 08:33N 40°48' W 073°59'0 0.0
2016-Nov-29 07:33N 40°48' W 073°59'0 0.0
2016-Nov-29 06:33N 40°48' W 073°59'0 0.0
2016-Nov-29 05:33N 40°48' W 073°59'0 0.1
2016-Nov-29 04:33N 40°48' W 073°59'0 0.0
2016-Nov-29 03:33N 40°48' W 073°59'0 0.0
2016-Nov-29 02:33N 40°48' W 073°59'0 0.0
2016-Nov-29 01:33N 40°48' W 073°59'0 0.0
2016-Nov-29 00:33N 40°48' W 073°59'0 0.0
2016-Nov-28 23:33N 40°48' W 073°59'0 0.0
2016-Nov-28 22:33N 40°48' W 073°59'0 0.1
2016-Nov-28 21:33N 40°48' W 073°59'0 0.0
2016-Nov-28 20:33N 40°48' W 073°59'0 0.0
2016-Nov-28 19:33N 40°48' W 073°59'0 0.0
2016-Nov-28 18:33N 40°48' W 073°59'0 0.0
2016-Nov-28 17:33N 40°48' W 073°59'0 0.0
2016-Nov-28 16:33N 40°48' W 073°59'0 0.1
2016-Nov-28 15:33N 40°48' W 073°59'0 0.0
2016-Nov-28 14:33N 40°48' W 073°59'0 0.0
2016-Nov-28 13:33N 40°48' W 073°59'0 0.0
2016-Nov-28 12:33N 40°48' W 073°59'0 0.0
2016-Nov-28 11:30N 40°48' W 073°59'0 0.1
2016-Nov-28 10:33N 40°48' W 073°59'0 0.1
2016-Nov-28 09:33N 40°48' W 073°59'0 0.0
2016-Nov-28 08:33N 40°48' W 073°59'0 0.0
2016-Nov-28 07:33N 40°48' W 073°59'0 0.0
2016-Nov-28 06:32N 40°48' W 073°59'0 0.0
2016-Nov-28 05:32N 40°48' W 073°59'0 0.0
2016-Nov-28 04:32N 40°48' W 073°59'0 0.1
2016-Nov-28 03:32N 40°48' W 073°59'0 0.0
2016-Nov-28 02:29N 40°48' W 073°59'0 0.0
2016-Nov-28 01:32N 40°48' W 073°59'0 0.0
2016-Nov-28 00:29N 40°48' W 073°59'0 0.0
2016-Nov-27 23:32N 40°48' W 073°59'0 0.1
2016-Nov-27 22:32N 40°48' W 073°59'0 0.0
2016-Nov-27 21:33N 40°48' W 073°59'5 5.5
2016-Nov-27 20:33N 40°43' W 074°01'6 6.1
2016-Nov-27 19:33N 40°47' W 073°56'10 0.9
2016-Nov-27 08:24N 40°52' W 073°45'8 9.7
2016-Nov-27 07:33N 40°48' W 073°54'9 9.6
2016-Nov-27 06:33N 40°41' W 074°02'4 3.6
2016-Nov-27 05:33N 40°37' W 074°03'4 3.6
2016-Nov-27 04:33N 40°38' W 074°08'0 0.0
2016-Nov-27 03:33N 40°38' W 074°08'0 0.0
2016-Nov-27 02:33N 40°38' W 074°08'0 0.0
2016-Nov-27 01:33N 40°38' W 074°08'0 0.0
2016-Nov-27 00:33N 40°38' W 074°08'0 0.0
2016-Nov-26 23:33N 40°38' W 074°08'0 0.0
2016-Nov-26 22:33N 40°38' W 074°08'0 0.0
2016-Nov-26 21:33N 40°38' W 074°08'0 0.0
2016-Nov-26 20:33N 40°38' W 074°08'0 0.0
2016-Nov-26 19:33N 40°38' W 074°08'0 0.0
2016-Nov-26 18:33N 40°38' W 074°08'3 3.1
2016-Nov-26 17:33N 40°38' W 074°12'8 3.3
2016-Nov-26 15:16N 40°31' W 074°15'710.1
2016-Nov-26 14:33N 40°38' W 074°12'3 3.2
2016-Nov-26 13:32N 40°38' W 074°08'0 0.0
2016-Nov-26 10:26N 40°38' W 074°08'0 0.0
2016-Nov-26 07:17N 40°38' W 074°08'0 0.0
2016-Nov-26 06:25N 40°38' W 074°08'0 0.0
2016-Nov-26 05:07N 40°38' W 074°08'0 0.0
2016-Nov-26 04:25N 40°38' W 074°08'0 0.0
2016-Nov-26 03:31N 40°38' W 074°08'0 0.0
2016-Nov-25 11:31N 40°38' W 074°08'0 0.0
2016-Nov-25 10:31N 40°38' W 074°08'0 0.0
2016-Nov-25 09:28N 40°38' W 074°08'0 0.0
2016-Nov-25 07:31N 40°38' W 074°08'3 3.1
2016-Nov-25 06:33N 40°38' W 074°04'3 2.9
2016-Nov-25 05:32N 40°38' W 074°08'1 1.0
2016-Nov-25 04:33N 40°39' W 074°07'0 0.4
2016-Nov-25 03:33N 40°39' W 074°06'1 0.5
2016-Nov-25 02:33N 40°39' W 074°07'1 0.8
2016-Nov-25 01:33N 40°38' W 074°08'0 0.0
2016-Nov-25 00:33N 40°38' W 074°08'0 0.0
2016-Nov-24 23:33N 40°38' W 074°08'0 0.0
2016-Nov-24 22:33N 40°38' W 074°08'0 0.0
2016-Nov-24 21:33N 40°38' W 074°08'0 0.0
2016-Nov-24 20:33N 40°38' W 074°08'0 0.0
2016-Nov-24 19:33N 40°38' W 074°08'0 0.0
2016-Nov-24 18:33N 40°38' W 074°08'0 0.0
2016-Nov-24 17:33N 40°38' W 074°08'2 1.6
2016-Nov-24 16:33N 40°40' W 074°08'2 1.5
2016-Nov-24 15:33N 40°42' W 074°08'3 2.9
2016-Nov-24 14:29N 40°38' W 074°08'0 0.0
2016-Nov-24 13:33N 40°38' W 074°08'0 0.0
2016-Nov-24 12:33N 40°38' W 074°08'0 0.0
2016-Nov-24 11:33N 40°38' W 074°08'0 0.0
2016-Nov-24 10:33N 40°38' W 074°08'0 0.0
2016-Nov-24 09:33N 40°38' W 074°08'0 0.0
2016-Nov-24 08:33N 40°38' W 074°08'0 0.0
2016-Nov-24 07:33N 40°38' W 074°08'0 0.0
2016-Nov-24 06:33N 40°38' W 074°08'0 0.0
2016-Nov-24 05:33N 40°38' W 074°08'1 1.2
2016-Nov-24 04:33N 40°40' W 074°09'2 2.4
2016-Nov-24 03:33N 40°42' W 074°09'4 3.8
2016-Nov-24 02:33N 40°39' W 074°06'5 5.0
2016-Nov-24 01:33N 40°41' W 074°00'4 4.0
2016-Nov-24 00:33N 40°39' W 074°04'6 5.9
2016-Nov-23 23:33N 40°38' W 074°12'4 4.3
2016-Nov-23 22:33N 40°39' W 074°07'3 3.0
2016-Nov-23 21:33N 40°37' W 074°03'4 3.5
2016-Nov-23 20:33N 40°38' W 074°08'0 0.0
2016-Nov-23 19:33N 40°38' W 074°08'0 0.0
2016-Nov-23 18:33N 40°38' W 074°08'0 0.0
2016-Nov-23 17:33N 40°38' W 074°08'0 0.0
2016-Nov-23 16:33N 40°38' W 074°08'0 0.3
2016-Nov-23 15:33N 40°39' W 074°08'1 0.7
2016-Nov-23 13:33N 40°40' W 074°08'  

Dump ship's entire track history